Goshen, Indiana
Current Conditions -  °F | °C
As of 2:53 PM on Saturday 25 Oct 2014 (Local Time) from KGSH Reporting Station
Clear Clear  
Wind Chill: 67°   Ceiling: Unl
Heat Index: 67°   Visibility: 10mi
Dew Point: 45°   Wind: 16mph
Humidity: 45%   Direction: 280°W
Pressure: 29.88"   Gusts: 25mph
Location:  41.59°N, 85.84°W
Report Text: KGSH 251853Z AUTO 28014G22KT 10SM CLR 19/07 A2988 RMK AO2 SLP119 T01940072
Loading
Personal Weather Stations






























Interactive Weather Map
Tropical Storm Tracking
New forecast layout! Learn more

10-Day Weather Forecast

Advertisements
Track Severe Weather on mobile